sensor_id;sensor_type;location;lat;lon;timestamp;P1;durP1;ratioP1;P2;durP2;ratioP2
36009;SDS011;22076;52.182;5.404;2022-08-19T00:00:30;8.80;;;6.18;;
36009;SDS011;22076;52.182;5.404;2022-08-19T00:02:57;6.82;;;4.38;;
36009;SDS011;22076;52.182;5.404;2022-08-19T00:05:23;7.00;;;4.93;;
36009;SDS011;22076;52.182;5.404;2022-08-19T00:07:50;5.22;;;4.20;;
36009;SDS011;22076;52.182;5.404;2022-08-19T00:10:17;6.85;;;4.88;;
36009;SDS011;22076;52.182;5.404;2022-08-19T00:12:45;4.60;;;3.80;;
36009;SDS011;22076;52.182;5.404;2022-08-19T00:15:12;9.85;;;6.72;;
36009;SDS011;22076;52.182;5.404;2022-08-19T00:17:42;4.22;;;3.75;;
36009;SDS011;22076;52.182;5.404;2022-08-19T00:20:11;6.13;;;4.00;;
36009;SDS011;22076;52.182;5.404;2022-08-19T00:22:41;7.63;;;5.57;;
36009;SDS011;22076;52.182;5.404;2022-08-19T00:25:09;5.20;;;4.50;;
36009;SDS011;22076;52.182;5.404;2022-08-19T00:27:36;5.22;;;4.20;;
36009;SDS011;22076;52.182;5.404;2022-08-19T00:30:05;6.13;;;5.03;;
36009;SDS011;22076;52.182;5.404;2022-08-19T00:32:36;7.88;;;5.95;;
36009;SDS011;22076;52.182;5.404;2022-08-19T00:35:04;7.57;;;6.05;;
36009;SDS011;22076;52.182;5.404;2022-08-19T00:37:32;7.70;;;5.40;;
36009;SDS011;22076;52.182;5.404;2022-08-19T00:40:00;8.63;;;5.25;;
36009;SDS011;22076;52.182;5.404;2022-08-19T00:42:27;7.07;;;6.00;;
36009;SDS011;22076;52.182;5.404;2022-08-19T00:44:54;6.97;;;5.35;;
36009;SDS011;22076;52.182;5.404;2022-08-19T00:47:22;7.35;;;5.47;;
36009;SDS011;22076;52.182;5.404;2022-08-19T00:49:49;8.23;;;6.70;;
36009;SDS011;22076;52.182;5.404;2022-08-19T00:52:20;11.27;;;7.85;;
36009;SDS011;22076;52.182;5.404;2022-08-19T00:54:49;8.82;;;6.22;;
36009;SDS011;22076;52.182;5.404;2022-08-19T00:57:18;8.30;;;6.97;;
36009;SDS011;22076;52.182;5.404;2022-08-19T00:59:50;11.38;;;7.97;;
36009;SDS011;22076;52.182;5.404;2022-08-19T01:02:18;6.88;;;4.90;;
36009;SDS011;22076;52.182;5.404;2022-08-19T01:04:46;8.05;;;6.03;;
36009;SDS011;22076;52.182;5.404;2022-08-19T01:07:13;7.43;;;5.00;;
36009;SDS011;22076;52.182;5.404;2022-08-19T01:09:40;7.93;;;6.55;;
36009;SDS011;22076;52.182;5.404;2022-08-19T01:12:06;7.43;;;5.80;;
36009;SDS011;22076;52.182;5.404;2022-08-19T01:14:33;7.78;;;6.05;;
36009;SDS011;22076;52.182;5.404;2022-08-19T01:17:01;7.38;;;5.80;;
36009;SDS011;22076;52.182;5.404;2022-08-19T01:19:29;5.93;;;4.95;;
36009;SDS011;22076;52.182;5.404;2022-08-19T01:21:59;7.70;;;6.30;;
36009;SDS011;22076;52.182;5.404;2022-08-19T01:24:30;17.35;;;11.32;;
36009;SDS011;22076;52.182;5.404;2022-08-19T01:26:59;15.88;;;10.23;;
36009;SDS011;22076;52.182;5.404;2022-08-19T01:29:26;13.48;;;11.00;;
36009;SDS011;22076;52.182;5.404;2022-08-19T01:31:54;14.20;;;11.13;;
36009;SDS011;22076;52.182;5.404;2022-08-19T01:34:21;14.70;;;11.93;;
36009;SDS011;22076;52.182;5.404;2022-08-19T01:36:48;10.10;;;8.18;;
36009;SDS011;22076;52.182;5.404;2022-08-19T01:39:18;9.27;;;7.30;;
36009;SDS011;22076;52.182;5.404;2022-08-19T01:41:47;11.98;;;10.32;;
36009;SDS011;22076;52.182;5.404;2022-08-19T01:44:14;14.90;;;10.65;;
36009;SDS011;22076;52.182;5.404;2022-08-19T01:46:45;9.85;;;8.02;;
36009;SDS011;22076;52.182;5.404;2022-08-19T01:49:14;12.93;;;11.18;;
36009;SDS011;22076;52.182;5.404;2022-08-19T01:51:41;10.18;;;7.55;;
36009;SDS011;22076;52.182;5.404;2022-08-19T01:54:08;12.07;;;8.18;;
36009;SDS011;22076;52.182;5.404;2022-08-19T01:56:35;9.82;;;8.52;;
36009;SDS011;22076;52.182;5.404;2022-08-19T01:59:05;16.05;;;7.93;;
36009;SDS011;22076;52.182;5.404;2022-08-19T02:01:34;9.38;;;8.07;;
36009;SDS011;22076;52.182;5.404;2022-08-19T02:04:02;12.35;;;7.75;;
36009;SDS011;22076;52.182;5.404;2022-08-19T02:06:30;9.80;;;7.78;;
36009;SDS011;22076;52.182;5.404;2022-08-19T02:08:57;12.35;;;9.60;;
36009;SDS011;22076;52.182;5.404;2022-08-19T02:11:24;16.25;;;12.77;;
36009;SDS011;22076;52.182;5.404;2022-08-19T02:13:53;9.15;;;7.60;;
36009;SDS011;22076;52.182;5.404;2022-08-19T02:16:21;8.45;;;7.45;;
36009;SDS011;22076;52.182;5.404;2022-08-19T02:18:51;14.57;;;10.88;;
36009;SDS011;22076;52.182;5.404;2022-08-19T02:21:18;10.88;;;8.48;;
36009;SDS011;22076;52.182;5.404;2022-08-19T02:23:45;9.45;;;7.43;;
36009;SDS011;22076;52.182;5.404;2022-08-19T02:26:13;15.68;;;9.63;;
36009;SDS011;22076;52.182;5.404;2022-08-19T02:28:39;10.57;;;8.02;;
36009;SDS011;22076;52.182;5.404;2022-08-19T02:31:08;16.23;;;12.52;;
36009;SDS011;22076;52.182;5.404;2022-08-19T02:33:37;10.77;;;8.05;;
36009;SDS011;22076;52.182;5.404;2022-08-19T02:36:04;17.20;;;12.18;;
36009;SDS011;22076;52.182;5.404;2022-08-19T02:38:31;14.35;;;11.32;;
36009;SDS011;22076;52.182;5.404;2022-08-19T02:40:59;16.77;;;12.82;;
36009;SDS011;22076;52.182;5.404;2022-08-19T02:43:26;15.82;;;11.82;;
36009;SDS011;22076;52.182;5.404;2022-08-19T02:45:56;13.18;;;9.93;;
36009;SDS011;22076;52.182;5.404;2022-08-19T02:48:24;11.60;;;8.77;;
36009;SDS011;22076;52.182;5.404;2022-08-19T02:50:52;10.68;;;8.95;;
36009;SDS011;22076;52.182;5.404;2022-08-19T02:53:20;12.30;;;9.13;;
36009;SDS011;22076;52.182;5.404;2022-08-19T02:55:47;11.88;;;9.60;;
36009;SDS011;22076;52.182;5.404;2022-08-19T02:58:17;9.52;;;7.57;;
36009;SDS011;22076;52.182;5.404;2022-08-19T03:00:46;10.27;;;7.93;;
36009;SDS011;22076;52.182;5.404;2022-08-19T03:03:14;9.93;;;7.38;;
36009;SDS011;22076;52.182;5.404;2022-08-19T03:05:41;9.30;;;7.18;;
36009;SDS011;22076;52.182;5.404;2022-08-19T03:08:09;9.18;;;7.10;;
36009;SDS011;22076;52.182;5.404;2022-08-19T03:10:41;9.77;;;7.05;;
36009;SDS011;22076;52.182;5.404;2022-08-19T03:13:13;12.20;;;10.38;;
36009;SDS011;22076;52.182;5.404;2022-08-19T03:15:41;18.85;;;14.45;;
36009;SDS011;22076;52.182;5.404;2022-08-19T03:18:08;16.33;;;12.57;;
36009;SDS011;22076;52.182;5.404;2022-08-19T03:20:39;18.10;;;13.00;;
36009;SDS011;22076;52.182;5.404;2022-08-19T03:23:07;10.13;;;7.47;;
36009;SDS011;22076;52.182;5.404;2022-08-19T03:25:36;15.25;;;10.68;;
36009;SDS011;22076;52.182;5.404;2022-08-19T03:28:10;14.50;;;11.13;;
36009;SDS011;22076;52.182;5.404;2022-08-19T03:30:37;20.92;;;15.40;;
36009;SDS011;22076;52.182;5.404;2022-08-19T03:33:05;19.05;;;14.40;;
36009;SDS011;22076;52.182;5.404;2022-08-19T03:35:32;18.60;;;13.90;;
36009;SDS011;22076;52.182;5.404;2022-08-19T03:38:02;9.20;;;7.28;;
36009;SDS011;22076;52.182;5.404;2022-08-19T03:40:31;13.57;;;10.43;;
36009;SDS011;22076;52.182;5.404;2022-08-19T03:42:57;10.55;;;8.50;;
36009;SDS011;22076;52.182;5.404;2022-08-19T03:45:24;13.10;;;10.73;;
36009;SDS011;22076;52.182;5.404;2022-08-19T03:47:50;20.63;;;15.82;;
36009;SDS011;22076;52.182;5.404;2022-08-19T03:50:17;17.95;;;14.85;;
36009;SDS011;22076;52.182;5.404;2022-08-19T03:52:47;20.55;;;14.60;;
36009;SDS011;22076;52.182;5.404;2022-08-19T03:55:15;13.43;;;10.35;;
36009;SDS011;22076;52.182;5.404;2022-08-19T03:57:43;13.57;;;10.35;;
36009;SDS011;22076;52.182;5.404;2022-08-19T04:00:13;16.83;;;12.45;;
36009;SDS011;22076;52.182;5.404;2022-08-19T04:02:40;15.02;;;11.52;;
36009;SDS011;22076;52.182;5.404;2022-08-19T04:05:08;10.40;;;7.18;;
36009;SDS011;22076;52.182;5.404;2022-08-19T04:07:35;13.77;;;10.68;;
36009;SDS011;22076;52.182;5.404;2022-08-19T04:10:02;18.83;;;11.48;;
36009;SDS011;22076;52.182;5.404;2022-08-19T04:12:30;12.05;;;9.45;;
36009;SDS011;22076;52.182;5.404;2022-08-19T04:14:58;17.02;;;12.55;;
36009;SDS011;22076;52.182;5.404;2022-08-19T04:17:24;12.82;;;9.30;;
36009;SDS011;22076;52.182;5.404;2022-08-19T04:19:51;16.25;;;10.10;;
36009;SDS011;22076;52.182;5.404;2022-08-19T04:22:20;9.95;;;6.75;;
36009;SDS011;22076;52.182;5.404;2022-08-19T04:24:46;13.27;;;9.15;;
36009;SDS011;22076;52.182;5.404;2022-08-19T04:27:13;10.50;;;7.85;;
36009;SDS011;22076;52.182;5.404;2022-08-19T04:29:41;15.68;;;9.57;;
36009;SDS011;22076;52.182;5.404;2022-08-19T04:32:09;11.00;;;7.57;;
36009;SDS011;22076;52.182;5.404;2022-08-19T04:34:36;13.48;;;9.90;;
36009;SDS011;22076;52.182;5.404;2022-08-19T04:37:04;16.58;;;10.95;;
36009;SDS011;22076;52.182;5.404;2022-08-19T04:39:32;9.40;;;6.78;;
36009;SDS011;22076;52.182;5.404;2022-08-19T04:42:34;11.68;;;8.65;;
36009;SDS011;22076;52.182;5.404;2022-08-19T04:45:08;9.90;;;6.88;;
36009;SDS011;22076;52.182;5.404;2022-08-19T04:47:37;13.02;;;9.85;;
36009;SDS011;22076;52.182;5.404;2022-08-19T04:50:05;12.18;;;7.95;;
36009;SDS011;22076;52.182;5.404;2022-08-19T04:52:32;13.80;;;10.13;;
36009;SDS011;22076;52.182;5.404;2022-08-19T04:54:59;12.05;;;8.70;;
36009;SDS011;22076;52.182;5.404;2022-08-19T04:57:28;16.70;;;11.00;;
36009;SDS011;22076;52.182;5.404;2022-08-19T04:59:56;17.60;;;11.30;;
36009;SDS011;22076;52.182;5.404;2022-08-19T05:02:23;12.98;;;9.25;;
36009;SDS011;22076;52.182;5.404;2022-08-19T05:04:55;16.42;;;9.88;;
36009;SDS011;22076;52.182;5.404;2022-08-19T05:07:23;12.50;;;8.55;;
36009;SDS011;22076;52.182;5.404;2022-08-19T05:09:50;12.27;;;7.03;;
36009;SDS011;22076;52.182;5.404;2022-08-19T05:12:24;12.55;;;7.72;;
36009;SDS011;22076;52.182;5.404;2022-08-19T05:14:51;17.02;;;12.00;;
36009;SDS011;22076;52.182;5.404;2022-08-19T05:17:19;12.45;;;7.53;;
36009;SDS011;22076;52.182;5.404;2022-08-19T05:19:46;10.32;;;6.63;;
36009;SDS011;22076;52.182;5.404;2022-08-19T05:22:31;9.40;;;6.30;;
36009;SDS011;22076;52.182;5.404;2022-08-19T05:24:59;12.93;;;7.80;;
36009;SDS011;22076;52.182;5.404;2022-08-19T05:27:27;10.88;;;8.15;;
36009;SDS011;22076;52.182;5.404;2022-08-19T05:29:53;10.40;;;7.35;;
36009;SDS011;22076;52.182;5.404;2022-08-19T05:32:19;12.07;;;8.30;;
36009;SDS011;22076;52.182;5.404;2022-08-19T05:34:46;10.82;;;7.13;;
36009;SDS011;22076;52.182;5.404;2022-08-19T05:37:13;13.73;;;8.10;;
36009;SDS011;22076;52.182;5.404;2022-08-19T05:39:41;9.35;;;6.68;;
36009;SDS011;22076;52.182;5.404;2022-08-19T05:42:09;14.90;;;10.65;;
36009;SDS011;22076;52.182;5.404;2022-08-19T05:44:37;12.75;;;6.93;;
36009;SDS011;22076;52.182;5.404;2022-08-19T05:47:08;13.07;;;8.77;;
36009;SDS011;22076;52.182;5.404;2022-08-19T05:49:36;18.75;;;10.85;;
36009;SDS011;22076;52.182;5.404;2022-08-19T05:52:04;32.85;;;19.02;;
36009;SDS011;22076;52.182;5.404;2022-08-19T05:54:31;42.50;;;23.65;;
36009;SDS011;22076;52.182;5.404;2022-08-19T05:57:00;31.73;;;18.25;;
36009;SDS011;22076;52.182;5.404;2022-08-19T05:59:28;30.15;;;16.65;;
36009;SDS011;22076;52.182;5.404;2022-08-19T06:01:55;35.33;;;20.73;;
36009;SDS011;22076;52.182;5.404;2022-08-19T06:04:22;27.85;;;15.57;;
36009;SDS011;22076;52.182;5.404;2022-08-19T06:06:49;66.63;;;34.03;;
36009;SDS011;22076;52.182;5.404;2022-08-19T06:09:17;35.72;;;19.88;;
36009;SDS011;22076;52.182;5.404;2022-08-19T06:11:44;60.85;;;30.88;;
36009;SDS011;22076;52.182;5.404;2022-08-19T06:14:14;66.47;;;32.03;;
36009;SDS011;22076;52.182;5.404;2022-08-19T06:16:42;44.67;;;22.83;;
36009;SDS011;22076;52.182;5.404;2022-08-19T06:19:12;56.47;;;27.75;;
36009;SDS011;22076;52.182;5.404;2022-08-19T06:21:41;36.88;;;19.15;;
36009;SDS011;22076;52.182;5.404;2022-08-19T06:24:10;58.47;;;27.13;;
36009;SDS011;22076;52.182;5.404;2022-08-19T06:26:39;62.28;;;32.58;;
36009;SDS011;22076;52.182;5.404;2022-08-19T06:29:07;36.83;;;19.33;;
36009;SDS011;22076;52.182;5.404;2022-08-19T06:31:36;50.70;;;25.92;;
36009;SDS011;22076;52.182;5.404;2022-08-19T06:34:04;40.33;;;21.10;;
36009;SDS011;22076;52.182;5.404;2022-08-19T06:36:31;42.92;;;22.65;;
36009;SDS011;22076;52.182;5.404;2022-08-19T06:38:59;47.10;;;24.90;;
36009;SDS011;22076;52.182;5.404;2022-08-19T06:41:27;55.95;;;28.73;;
36009;SDS011;22076;52.182;5.404;2022-08-19T06:43:55;57.35;;;29.85;;
36009;SDS011;22076;52.182;5.404;2022-08-19T06:46:22;35.05;;;19.27;;
36009;SDS011;22076;52.182;5.404;2022-08-19T06:48:50;40.78;;;21.33;;
36009;SDS011;22076;52.182;5.404;2022-08-19T06:51:18;35.55;;;18.00;;
36009;SDS011;22076;52.182;5.404;2022-08-19T06:53:45;41.17;;;20.52;;
36009;SDS011;22076;52.182;5.404;2022-08-19T06:56:12;35.25;;;17.40;;
36009;SDS011;22076;52.182;5.404;2022-08-19T06:58:40;40.90;;;21.75;;
36009;SDS011;22076;52.182;5.404;2022-08-19T07:01:06;64.15;;;32.00;;
36009;SDS011;22076;52.182;5.404;2022-08-19T07:03:34;68.90;;;30.15;;
36009;SDS011;22076;52.182;5.404;2022-08-19T07:06:04;78.80;;;37.00;;
36009;SDS011;22076;52.182;5.404;2022-08-19T07:08:32;75.47;;;33.05;;
36009;SDS011;22076;52.182;5.404;2022-08-19T07:10:58;43.30;;;23.00;;
36009;SDS011;22076;52.182;5.404;2022-08-19T07:13:25;61.75;;;29.30;;
36009;SDS011;22076;52.182;5.404;2022-08-19T07:15:52;45.53;;;20.38;;
36009;SDS011;22076;52.182;5.404;2022-08-19T07:18:18;48.08;;;24.13;;
36009;SDS011;22076;52.182;5.404;2022-08-19T07:20:46;43.63;;;22.13;;
36009;SDS011;22076;52.182;5.404;2022-08-19T07:23:14;37.40;;;20.48;;
36009;SDS011;22076;52.182;5.404;2022-08-19T07:25:41;54.60;;;25.77;;
36009;SDS011;22076;52.182;5.404;2022-08-19T07:28:08;56.10;;;29.80;;
36009;SDS011;22076;52.182;5.404;2022-08-19T07:30:35;56.60;;;29.13;;
36009;SDS011;22076;52.182;5.404;2022-08-19T07:33:02;45.88;;;23.42;;
36009;SDS011;22076;52.182;5.404;2022-08-19T07:35:30;53.63;;;27.60;;
36009;SDS011;22076;52.182;5.404;2022-08-19T07:37:59;77.57;;;39.22;;
36009;SDS011;22076;52.182;5.404;2022-08-19T07:40:30;49.42;;;24.38;;
36009;SDS011;22076;52.182;5.404;2022-08-19T07:42:57;38.58;;;22.38;;
36009;SDS011;22076;52.182;5.404;2022-08-19T07:45:23;58.70;;;29.73;;
36009;SDS011;22076;52.182;5.404;2022-08-19T07:47:50;73.75;;;37.65;;
36009;SDS011;22076;52.182;5.404;2022-08-19T07:50:17;59.13;;;30.85;;
36009;SDS011;22076;52.182;5.404;2022-08-19T07:52:44;44.63;;;24.35;;
36009;SDS011;22076;52.182;5.404;2022-08-19T07:55:11;33.55;;;18.15;;
36009;SDS011;22076;52.182;5.404;2022-08-19T07:57:40;35.95;;;20.55;;
36009;SDS011;22076;52.182;5.404;2022-08-19T08:00:07;45.63;;;24.63;;
36009;SDS011;22076;52.182;5.404;2022-08-19T08:02:34;49.03;;;27.20;;
36009;SDS011;22076;52.182;5.404;2022-08-19T08:05:00;53.17;;;26.92;;
36009;SDS011;22076;52.182;5.404;2022-08-19T08:07:45;57.28;;;30.50;;
36009;SDS011;22076;52.182;5.404;2022-08-19T08:10:30;46.47;;;24.80;;
36009;SDS011;22076;52.182;5.404;2022-08-19T08:12:58;37.45;;;20.23;;
36009;SDS011;22076;52.182;5.404;2022-08-19T08:15:26;35.55;;;19.90;;
36009;SDS011;22076;52.182;5.404;2022-08-19T08:17:52;53.70;;;29.50;;
36009;SDS011;22076;52.182;5.404;2022-08-19T08:20:19;42.35;;;23.35;;
36009;SDS011;22076;52.182;5.404;2022-08-19T08:22:46;36.83;;;20.50;;
36009;SDS011;22076;52.182;5.404;2022-08-19T08:25:31;37.38;;;21.38;;
36009;SDS011;22076;52.182;5.404;2022-08-19T08:27:59;43.95;;;23.73;;
36009;SDS011;22076;52.182;5.404;2022-08-19T08:30:26;54.92;;;27.75;;
36009;SDS011;22076;52.182;5.404;2022-08-19T08:32:54;47.95;;;27.63;;
36009;SDS011;22076;52.182;5.404;2022-08-19T08:35:22;40.47;;;21.63;;
36009;SDS011;22076;52.182;5.404;2022-08-19T08:37:49;29.45;;;18.77;;
36009;SDS011;22076;52.182;5.404;2022-08-19T08:40:19;50.90;;;27.83;;
36009;SDS011;22076;52.182;5.404;2022-08-19T08:42:50;45.40;;;26.33;;
36009;SDS011;22076;52.182;5.404;2022-08-19T08:45:19;40.78;;;21.33;;
36009;SDS011;22076;52.182;5.404;2022-08-19T08:47:48;35.42;;;20.58;;
36009;SDS011;22076;52.182;5.404;2022-08-19T08:50:18;34.38;;;19.83;;
36009;SDS011;22076;52.182;5.404;2022-08-19T08:52:48;30.35;;;18.83;;
36009;SDS011;22076;52.182;5.404;2022-08-19T08:55:18;44.55;;;24.63;;
36009;SDS011;22076;52.182;5.404;2022-08-19T08:57:49;34.13;;;19.77;;
36009;SDS011;22076;52.182;5.404;2022-08-19T09:00:25;47.67;;;26.35;;
36009;SDS011;22076;52.182;5.404;2022-08-19T09:02:53;38.60;;;22.73;;
36009;SDS011;22076;52.182;5.404;2022-08-19T09:05:20;48.72;;;26.80;;
36009;SDS011;22076;52.182;5.404;2022-08-19T09:07:49;33.70;;;21.23;;
36009;SDS011;22076;52.182;5.404;2022-08-19T09:12:57;46.65;;;25.85;;
36009;SDS011;22076;52.182;5.404;2022-08-19T09:15:34;49.65;;;27.05;;
36009;SDS011;22076;52.182;5.404;2022-08-19T09:18:03;54.17;;;27.65;;
36009;SDS011;22076;52.182;5.404;2022-08-19T09:20:31;34.17;;;21.98;;
36009;SDS011;22076;52.182;5.404;2022-08-19T09:22:58;38.08;;;24.02;;
36009;SDS011;22076;52.182;5.404;2022-08-19T09:25:25;49.88;;;28.85;;
36009;SDS011;22076;52.182;5.404;2022-08-19T09:27:52;36.78;;;19.67;;
36009;SDS011;22076;52.182;5.404;2022-08-19T09:30:20;40.60;;;22.83;;
36009;SDS011;22076;52.182;5.404;2022-08-19T09:32:50;36.05;;;22.17;;
36009;SDS011;22076;52.182;5.404;2022-08-19T09:35:18;35.22;;;19.58;;
36009;SDS011;22076;52.182;5.404;2022-08-19T09:37:50;29.55;;;19.10;;
36009;SDS011;22076;52.182;5.404;2022-08-19T09:40:17;36.88;;;22.50;;
36009;SDS011;22076;52.182;5.404;2022-08-19T09:42:45;28.75;;;19.50;;
36009;SDS011;22076;52.182;5.404;2022-08-19T09:45:12;34.60;;;22.02;;
36009;SDS011;22076;52.182;5.404;2022-08-19T09:47:39;27.50;;;18.00;;
36009;SDS011;22076;52.182;5.404;2022-08-19T09:50:10;20.98;;;15.73;;
36009;SDS011;22076;52.182;5.404;2022-08-19T09:52:38;46.28;;;29.35;;
36009;SDS011;22076;52.182;5.404;2022-08-19T09:55:07;35.10;;;20.30;;
36009;SDS011;22076;52.182;5.404;2022-08-19T09:57:35;28.20;;;18.52;;
36009;SDS011;22076;52.182;5.404;2022-08-19T10:00:02;31.42;;;21.20;;
36009;SDS011;22076;52.182;5.404;2022-08-19T10:02:31;27.08;;;19.27;;
36009;SDS011;22076;52.182;5.404;2022-08-19T10:04:58;28.38;;;19.08;;
36009;SDS011;22076;52.182;5.404;2022-08-19T10:10:09;34.22;;;22.17;;
36009;SDS011;22076;52.182;5.404;2022-08-19T10:12:37;25.30;;;18.30;;
36009;SDS011;22076;52.182;5.404;2022-08-19T10:15:05;28.67;;;19.67;;
36009;SDS011;22076;52.182;5.404;2022-08-19T10:17:32;25.63;;;17.08;;
36009;SDS011;22076;52.182;5.404;2022-08-19T10:20:00;21.13;;;15.45;;
36009;SDS011;22076;52.182;5.404;2022-08-19T10:22:27;26.10;;;16.33;;
36009;SDS011;22076;52.182;5.404;2022-08-19T10:24:56;22.75;;;15.50;;
36009;SDS011;22076;52.182;5.404;2022-08-19T10:27:23;35.08;;;21.65;;
36009;SDS011;22076;52.182;5.404;2022-08-19T10:29:49;35.10;;;21.35;;
36009;SDS011;22076;52.182;5.404;2022-08-19T10:32:19;21.65;;;15.68;;
36009;SDS011;22076;52.182;5.404;2022-08-19T10:34:46;29.08;;;19.63;;
36009;SDS011;22076;52.182;5.404;2022-08-19T10:37:14;16.50;;;13.02;;
36009;SDS011;22076;52.182;5.404;2022-08-19T10:39:41;23.70;;;15.90;;
36009;SDS011;22076;52.182;5.404;2022-08-19T10:42:10;29.45;;;18.92;;
36009;SDS011;22076;52.182;5.404;2022-08-19T10:44:38;19.88;;;14.82;;
36009;SDS011;22076;52.182;5.404;2022-08-19T10:47:07;22.90;;;17.50;;
36009;SDS011;22076;52.182;5.404;2022-08-19T10:49:37;18.25;;;13.85;;
36009;SDS011;22076;52.182;5.404;2022-08-19T10:52:24;18.33;;;14.35;;
36009;SDS011;22076;52.182;5.404;2022-08-19T10:54:58;25.63;;;17.88;;
36009;SDS011;22076;52.182;5.404;2022-08-19T10:57:46;33.90;;;22.33;;
36009;SDS011;22076;52.182;5.404;2022-08-19T11:00:13;27.15;;;18.77;;
36009;SDS011;22076;52.182;5.404;2022-08-19T11:02:40;28.17;;;19.92;;
36009;SDS011;22076;52.182;5.404;2022-08-19T11:05:07;21.77;;;16.23;;
36009;SDS011;22076;52.182;5.404;2022-08-19T11:07:38;37.60;;;26.35;;
36009;SDS011;22076;52.182;5.404;2022-08-19T11:10:05;29.95;;;21.05;;
36009;SDS011;22076;52.182;5.404;2022-08-19T11:12:33;21.63;;;16.80;;
36009;SDS011;22076;52.182;5.404;2022-08-19T11:15:00;25.92;;;18.13;;
36009;SDS011;22076;52.182;5.404;2022-08-19T11:17:27;19.90;;;15.95;;
36009;SDS011;22076;52.182;5.404;2022-08-19T11:19:55;21.92;;;15.63;;
36009;SDS011;22076;52.182;5.404;2022-08-19T11:22:22;25.35;;;16.70;;
36009;SDS011;22076;52.182;5.404;2022-08-19T11:24:49;21.23;;;16.00;;
36009;SDS011;22076;52.182;5.404;2022-08-19T11:27:15;29.27;;;20.20;;
36009;SDS011;22076;52.182;5.404;2022-08-19T11:29:42;26.92;;;16.65;;
36009;SDS011;22076;52.182;5.404;2022-08-19T11:32:10;26.65;;;18.77;;
36009;SDS011;22076;52.182;5.404;2022-08-19T11:34:37;27.95;;;19.23;;
36009;SDS011;22076;52.182;5.404;2022-08-19T11:37:05;18.40;;;14.32;;
36009;SDS011;22076;52.182;5.404;2022-08-19T11:39:34;30.08;;;21.90;;
36009;SDS011;22076;52.182;5.404;2022-08-19T11:42:02;23.05;;;17.20;;
36009;SDS011;22076;52.182;5.404;2022-08-19T11:44:49;23.20;;;16.67;;
36009;SDS011;22076;52.182;5.404;2022-08-19T11:47:18;26.85;;;16.83;;
36009;SDS011;22076;52.182;5.404;2022-08-19T11:49:45;22.25;;;16.17;;
36009;SDS011;22076;52.182;5.404;2022-08-19T11:52:19;18.65;;;13.60;;
36009;SDS011;22076;52.182;5.404;2022-08-19T11:54:45;30.83;;;20.73;;
36009;SDS011;22076;52.182;5.404;2022-08-19T11:57:12;22.13;;;16.83;;
36009;SDS011;22076;52.182;5.404;2022-08-19T11:59:41;21.10;;;14.82;;
36009;SDS011;22076;52.182;5.404;2022-08-19T12:02:08;22.17;;;16.17;;
36009;SDS011;22076;52.182;5.404;2022-08-19T12:04:37;21.77;;;16.67;;
36009;SDS011;22076;52.182;5.404;2022-08-19T12:07:03;21.80;;;16.45;;
36009;SDS011;22076;52.182;5.404;2022-08-19T12:09:30;28.48;;;19.38;;
36009;SDS011;22076;52.182;5.404;2022-08-19T12:11:56;23.95;;;16.63;;
36009;SDS011;22076;52.182;5.404;2022-08-19T12:14:23;24.77;;;17.25;;
36009;SDS011;22076;52.182;5.404;2022-08-19T12:16:50;25.20;;;16.15;;
36009;SDS011;22076;52.182;5.404;2022-08-19T12:19:16;23.05;;;17.75;;
36009;SDS011;22076;52.182;5.404;2022-08-19T12:21:44;23.10;;;17.33;;
36009;SDS011;22076;52.182;5.404;2022-08-19T12:24:11;26.10;;;16.48;;
36009;SDS011;22076;52.182;5.404;2022-08-19T12:26:38;28.58;;;20.60;;
36009;SDS011;22076;52.182;5.404;2022-08-19T12:29:08;40.60;;;24.73;;
36009;SDS011;22076;52.182;5.404;2022-08-19T12:31:35;32.45;;;24.02;;
36009;SDS011;22076;52.182;5.404;2022-08-19T12:34:01;30.98;;;21.17;;
36009;SDS011;22076;52.182;5.404;2022-08-19T12:36:28;35.00;;;24.83;;
36009;SDS011;22076;52.182;5.404;2022-08-19T12:38:57;49.50;;;22.23;;
36009;SDS011;22076;52.182;5.404;2022-08-19T12:41:24;27.98;;;19.33;;
36009;SDS011;22076;52.182;5.404;2022-08-19T12:43:50;34.67;;;17.08;;
36009;SDS011;22076;52.182;5.404;2022-08-19T12:46:18;24.00;;;17.30;;
36009;SDS011;22076;52.182;5.404;2022-08-19T12:48:45;19.77;;;16.17;;
36009;SDS011;22076;52.182;5.404;2022-08-19T12:51:17;26.00;;;16.65;;
36009;SDS011;22076;52.182;5.404;2022-08-19T12:53:44;19.73;;;15.98;;
36009;SDS011;22076;52.182;5.404;2022-08-19T12:56:13;20.30;;;15.68;;
36009;SDS011;22076;52.182;5.404;2022-08-19T12:58:40;16.33;;;14.20;;
36009;SDS011;22076;52.182;5.404;2022-08-19T13:01:08;17.88;;;15.15;;
36009;SDS011;22076;52.182;5.404;2022-08-19T13:03:36;20.73;;;17.10;;
36009;SDS011;22076;52.182;5.404;2022-08-19T13:06:03;17.90;;;14.70;;
36009;SDS011;22076;52.182;5.404;2022-08-19T13:08:30;17.60;;;15.20;;
36009;SDS011;22076;52.182;5.404;2022-08-19T13:10:57;22.88;;;18.17;;
36009;SDS011;22076;52.182;5.404;2022-08-19T13:13:27;25.75;;;19.25;;
36009;SDS011;22076;52.182;5.404;2022-08-19T13:15:59;26.52;;;21.42;;
36009;SDS011;22076;52.182;5.404;2022-08-19T13:18:27;18.00;;;14.13;;
36009;SDS011;22076;52.182;5.404;2022-08-19T13:20:53;17.90;;;14.13;;
36009;SDS011;22076;52.182;5.404;2022-08-19T13:23:21;16.70;;;14.02;;
36009;SDS011;22076;52.182;5.404;2022-08-19T13:25:55;22.40;;;16.60;;
36009;SDS011;22076;52.182;5.404;2022-08-19T13:28:22;20.98;;;15.82;;
36009;SDS011;22076;52.182;5.404;2022-08-19T13:30:50;17.35;;;15.00;;
36009;SDS011;22076;52.182;5.404;2022-08-19T13:33:34;18.88;;;16.13;;
36009;SDS011;22076;52.182;5.404;2022-08-19T13:36:00;22.92;;;18.45;;
36009;SDS011;22076;52.182;5.404;2022-08-19T13:38:29;18.38;;;15.70;;
36009;SDS011;22076;52.182;5.404;2022-08-19T13:40:55;27.13;;;22.85;;
36009;SDS011;22076;52.182;5.404;2022-08-19T13:43:24;19.67;;;17.42;;
36009;SDS011;22076;52.182;5.404;2022-08-19T13:45:54;23.27;;;18.23;;
36009;SDS011;22076;52.182;5.404;2022-08-19T13:48:21;18.20;;;14.57;;
36009;SDS011;22076;52.182;5.404;2022-08-19T13:50:48;21.98;;;15.82;;
36009;SDS011;22076;52.182;5.404;2022-08-19T13:53:15;31.17;;;22.08;;
36009;SDS011;22076;52.182;5.404;2022-08-19T13:55:43;22.35;;;19.23;;
36009;SDS011;22076;52.182;5.404;2022-08-19T13:58:10;18.45;;;15.85;;
36009;SDS011;22076;52.182;5.404;2022-08-19T14:00:38;20.00;;;16.35;;
36009;SDS011;22076;52.182;5.404;2022-08-19T14:03:07;14.45;;;12.88;;
36009;SDS011;22076;52.182;5.404;2022-08-19T14:05:34;25.92;;;18.00;;
36009;SDS011;22076;52.182;5.404;2022-08-19T14:08:00;14.10;;;12.43;;
36009;SDS011;22076;52.182;5.404;2022-08-19T14:10:28;24.38;;;18.10;;
36009;SDS011;22076;52.182;5.404;2022-08-19T14:12:55;22.17;;;14.65;;
36009;SDS011;22076;52.182;5.404;2022-08-19T14:15:24;14.73;;;12.73;;
36009;SDS011;22076;52.182;5.404;2022-08-19T14:17:51;16.63;;;13.38;;
36009;SDS011;22076;52.182;5.404;2022-08-19T14:20:20;17.80;;;13.18;;
36009;SDS011;22076;52.182;5.404;2022-08-19T14:22:47;16.83;;;12.77;;
36009;SDS011;22076;52.182;5.404;2022-08-19T14:25:15;14.63;;;12.40;;
36009;SDS011;22076;52.182;5.404;2022-08-19T14:27:43;16.60;;;12.60;;
36009;SDS011;22076;52.182;5.404;2022-08-19T14:30:11;15.25;;;12.98;;
36009;SDS011;22076;52.182;5.404;2022-08-19T14:32:40;17.55;;;14.63;;
36009;SDS011;22076;52.182;5.404;2022-08-19T14:35:08;13.30;;;11.90;;
36009;SDS011;22076;52.182;5.404;2022-08-19T14:37:36;19.80;;;14.63;;